createdAt,value
2022-12-31T00:01:48.996Z,100240.88
2022-12-31T00:04:50.377Z,100244.91
2022-12-31T00:07:51.745Z,100242.78
2022-12-31T00:10:53.234Z,100244.47
2022-12-31T00:13:55.824Z,100248.81
2022-12-31T00:16:57.648Z,100251.19
2022-12-31T00:19:59.034Z,100249.25
2022-12-31T00:23:02.098Z,100254.31
2022-12-31T00:26:06.236Z,100267.34
2022-12-31T00:29:07.588Z,100273.31
2022-12-31T00:32:09.067Z,100275.69
2022-12-31T00:35:10.572Z,100278.28
2022-12-31T00:38:11.927Z,100273.97
2022-12-31T00:41:15.175Z,100284.09
2022-12-31T00:44:16.518Z,100282.44
2022-12-31T00:47:17.916Z,100290.72
2022-12-31T00:50:19.275Z,100282.25
2022-12-31T00:53:20.916Z,100285.47
2022-12-31T00:56:25.323Z,100287.88
2022-12-31T00:59:26.692Z,100280.88
2022-12-31T01:02:28.172Z,100290.34
2022-12-31T01:05:31.768Z,100283.50
2022-12-31T01:08:33.288Z,100293.84
2022-12-31T01:11:34.758Z,100298.09
2022-12-31T01:14:36.159Z,100299.75
2022-12-31T01:17:37.505Z,100305.75
2022-12-31T01:20:43.875Z,100310.19
2022-12-31T01:23:45.247Z,100312.00
2022-12-31T01:26:46.922Z,100310.19
2022-12-31T01:29:48.360Z,100312.75
2022-12-31T01:32:49.721Z,100310.19
2022-12-31T01:35:51.056Z,100311.91
2022-12-31T01:38:53.644Z,100306.59
2022-12-31T01:41:54.988Z,100316.63
2022-12-31T01:44:56.665Z,100312.13
2022-12-31T01:48:03.703Z,100315.63
2022-12-31T01:51:09.281Z,100313.75
2022-12-31T01:54:13.122Z,100306.94
2022-12-31T01:57:15.783Z,100305.28
2022-12-31T02:00:17.733Z,100303.63
2022-12-31T02:03:21.990Z,100306.09
2022-12-31T02:06:36.317Z,100311.16
2022-12-31T02:09:39.635Z,100316.16
2022-12-31T02:12:40.939Z,100314.06
2022-12-31T02:16:03.715Z,100312.84
2022-12-31T02:19:32.485Z,100307.47
2022-12-31T02:22:51.789Z,100304.78
2022-12-31T02:26:12.879Z,100303.06
2022-12-31T02:29:41.120Z,100298.00
2022-12-31T02:33:04.364Z,100302.41
2022-12-31T02:36:12.405Z,100295.41
2022-12-31T02:39:14.831Z,100302.41
2022-12-31T02:42:16.242Z,100303.44
2022-12-31T02:45:22.144Z,100309.44
2022-12-31T02:48:32.852Z,100309.81
2022-12-31T02:51:46.302Z,100308.16
2022-12-31T02:54:58.707Z,100313.22
2022-12-31T02:58:16.984Z,100319.13
2022-12-31T03:01:27.528Z,100318.28
2022-12-31T03:04:33.479Z,100320.88
2022-12-31T03:07:34.828Z,100328.63
2022-12-31T03:10:36.692Z,100320.97
2022-12-31T03:13:38.049Z,100325.13
2022-12-31T03:16:39.483Z,100326.88
2022-12-31T03:19:41.413Z,100333.69
2022-12-31T03:22:43.632Z,100317.47
2022-12-31T03:25:45.319Z,100321.72
2022-12-31T03:28:46.671Z,100315.81
2022-12-31T03:31:48.081Z,100321.88
2022-12-31T03:34:49.560Z,100317.66
2022-12-31T03:37:51.469Z,100314.13
2022-12-31T03:40:53.114Z,100303.81
2022-12-31T03:43:54.477Z,100297.91
2022-12-31T03:46:55.867Z,100293.56
2022-12-31T03:49:59.806Z,100304.75
2022-12-31T03:53:01.466Z,100296.06
2022-12-31T03:56:02.898Z,100293.47
2022-12-31T03:59:04.246Z,100293.47
2022-12-31T04:02:07.495Z,100301.16
2022-12-31T04:05:09.142Z,100305.38
2022-12-31T04:08:10.549Z,100313.22
2022-12-31T04:11:14.731Z,100328.53
2022-12-31T04:14:20.386Z,100336.94
2022-12-31T04:17:21.797Z,100335.25
2022-12-31T04:20:23.167Z,100333.53
2022-12-31T04:23:24.587Z,100340.31
2022-12-31T04:26:25.947Z,100333.31
2022-12-31T04:29:27.358Z,100343.47
2022-12-31T04:32:28.704Z,100340.78
2022-12-31T04:35:30.065Z,100319.31
2022-12-31T04:38:31.982Z,100307.22
2022-12-31T04:41:33.701Z,100312.38
2022-12-31T04:44:35.062Z,100315.97
2022-12-31T04:47:36.462Z,100320.41
2022-12-31T04:50:38.113Z,100316.72
2022-12-31T04:53:40.312Z,100299.56
2022-12-31T04:56:43.043Z,100307.50
2022-12-31T04:59:44.427Z,100313.59
2022-12-31T05:02:46.130Z,100311.09
2022-12-31T05:05:48.097Z,100312.88
2022-12-31T05:08:50.290Z,100313.69
2022-12-31T05:11:51.647Z,100311.09
2022-12-31T05:14:52.984Z,100297.38
2022-12-31T05:17:54.387Z,100288.88
2022-12-31T05:20:55.755Z,100283.72
2022-12-31T05:23:58.139Z,100291.75
2022-12-31T05:26:59.699Z,100291.66
2022-12-31T05:30:01.212Z,100302.91
2022-12-31T05:33:02.633Z,100320.16
2022-12-31T05:36:04.349Z,100318.66
2022-12-31T05:39:05.688Z,100324.66
2022-12-31T05:42:07.080Z,100336.84
2022-12-31T05:45:09.156Z,100345.50
2022-12-31T05:48:10.512Z,100359.22
2022-12-31T05:51:11.880Z,100358.41
2022-12-31T05:54:13.517Z,100352.31
2022-12-31T05:57:15.078Z,100349.84
2022-12-31T06:00:16.741Z,100343.00
2022-12-31T06:03:19.670Z,100350.75
2022-12-31T06:06:21.121Z,100348.28
2022-12-31T06:09:22.607Z,100348.38
2022-12-31T06:12:24.081Z,100376.09
2022-12-31T06:15:25.424Z,100380.44
2022-12-31T06:18:26.785Z,100376.28
2022-12-31T06:21:28.274Z,100377.19
2022-12-31T06:24:29.677Z,100374.72
2022-12-31T06:27:30.997Z,100363.63
2022-12-31T06:30:32.527Z,100358.03
2022-12-31T06:33:35.003Z,100368.44
2022-12-31T06:36:36.371Z,100360.03
2022-12-31T06:39:37.711Z,100363.53
2022-12-31T06:42:39.566Z,100356.69
2022-12-31T06:45:40.918Z,100370.53
2022-12-31T06:48:43.229Z,100366.28
2022-12-31T06:51:44.579Z,100360.38
2022-12-31T06:54:46.173Z,100347.31
2022-12-31T06:57:48.166Z,100349.03
2022-12-31T07:01:12.795Z,100349.31
2022-12-31T07:04:36.040Z,100360.47
2022-12-31T07:07:58.300Z,100371.06
2022-12-31T07:11:22.642Z,100375.22
2022-12-31T07:14:45.269Z,100386.53
2022-12-31T07:18:00.240Z,100374.38
2022-12-31T07:21:02.065Z,100370.97
2022-12-31T07:24:06.135Z,100382.06
2022-12-31T07:27:19.756Z,100382.06
2022-12-31T07:30:23.393Z,100389.72
2022-12-31T07:33:24.749Z,100391.88
2022-12-31T07:36:28.794Z,100388.31
2022-12-31T07:40:01.262Z,100397.78
2022-12-31T07:43:28.506Z,100402.94
2022-12-31T07:46:50.547Z,100407.28
2022-12-31T07:49:52.434Z,100399.53
2022-12-31T07:52:54.232Z,100408.84
2022-12-31T07:55:59.202Z,100408.75
2022-12-31T07:59:34.411Z,100421.66
2022-12-31T08:02:54.353Z,100412.06
2022-12-31T08:05:58.371Z,100410.34
2022-12-31T08:09:11.863Z,100384.25
2022-12-31T08:12:13.524Z,100397.16
2022-12-31T08:15:20.055Z,100393.50
2022-12-31T08:18:23.622Z,100406.28
2022-12-31T08:21:38.272Z,100410.81
2022-12-31T08:24:51.603Z,100412.47
2022-12-31T08:28:26.695Z,100418.38
2022-12-31T08:32:24.603Z,100416.53
2022-12-31T08:35:44.642Z,100432.50
2022-12-31T08:39:07.512Z,100442.63
2022-12-31T08:42:25.653Z,100435.66
2022-12-31T08:45:33.667Z,100408.75
2022-12-31T08:48:45.297Z,100405.97
2022-12-31T08:51:46.937Z,100409.03
2022-12-31T08:54:48.666Z,100407.16
2022-12-31T08:58:03.707Z,100404.44
2022-12-31T09:01:07.035Z,100416.97
2022-12-31T09:04:29.854Z,100413.28
2022-12-31T09:07:39.420Z,100412.94
2022-12-31T09:10:53.610Z,100415.44
2022-12-31T09:14:33.585Z,100418.81
2022-12-31T09:17:38.043Z,100402.59
2022-12-31T09:20:44.506Z,100409.69
2022-12-31T09:23:46.443Z,100409.22
2022-12-31T09:27:00.417Z,100421.41
2022-12-31T09:30:05.662Z,100427.38
2022-12-31T09:33:36.330Z,100428.50
2022-12-31T09:36:50.575Z,100432.66
2022-12-31T09:39:53.073Z,100437.81
2022-12-31T09:43:13.779Z,100436.16
2022-12-31T09:46:52.165Z,100444.16
2022-12-31T09:50:21.638Z,100435.41
2022-12-31T09:53:29.191Z,100433.66
2022-12-31T09:56:42.426Z,100424.16
2022-12-31T09:59:57.720Z,100418.97
2022-12-31T10:03:19.239Z,100426.63
2022-12-31T10:06:58.308Z,100419.84
2022-12-31T10:10:22.384Z,100424.00
2022-12-31T10:13:47.298Z,100426.38
2022-12-31T10:17:11.548Z,100420.13
2022-12-31T10:20:18.926Z,100421.59
2022-12-31T10:23:49.919Z,100415.44
2022-12-31T10:27:00.370Z,100402.59
2022-12-31T10:30:24.426Z,100402.16
2022-12-31T10:33:43.538Z,100401.75
2022-12-31T10:37:01.778Z,100386.81
2022-12-31T10:40:08.928Z,100390.97
2022-12-31T10:43:40.430Z,100389.28
2022-12-31T10:47:11.889Z,100388.38
2022-12-31T10:51:07.854Z,100399.53
2022-12-31T10:54:46.792Z,100384.75
2022-12-31T10:58:21.159Z,100372.47
2022-12-31T11:01:31.337Z,100384.22
2022-12-31T11:04:51.163Z,100383.22
2022-12-31T11:08:07.522Z,100395.56
2022-12-31T11:11:28.425Z,100399.78
2022-12-31T11:14:50.824Z,100406.25
2022-12-31T11:18:15.011Z,100397.91
2022-12-31T11:21:46.184Z,100393.06
2022-12-31T11:25:27.586Z,100384.53
2022-12-31T11:28:41.870Z,100389.66
2022-12-31T11:31:46.088Z,100397.84
2022-12-31T11:35:07.919Z,100397.25
2022-12-31T11:38:25.718Z,100410.72
2022-12-31T11:41:49.925Z,100405.78
2022-12-31T11:45:12.715Z,100387.06
2022-12-31T11:48:30.590Z,100389.53
2022-12-31T11:52:08.284Z,100397.00
2022-12-31T11:55:34.743Z,100386.84
2022-12-31T11:58:36.142Z,100385.72
2022-12-31T12:01:56.687Z,100366.03
2022-12-31T12:05:06.566Z,100363.31
2022-12-31T12:08:12.087Z,100354.97
2022-12-31T12:11:20.440Z,100349.94
2022-12-31T12:14:43.052Z,100368.28
2022-12-31T12:17:51.828Z,100367.59
2022-12-31T12:21:00.384Z,100360.03
2022-12-31T12:24:17.914Z,60218.47
2022-12-31T12:27:22.709Z,60218.47
2022-12-31T12:30:27.619Z,60218.47
2022-12-31T12:33:41.104Z,60218.47
2022-12-31T12:36:45.828Z,60218.47
2022-12-31T12:39:56.117Z,60218.47
2022-12-31T12:42:57.459Z,60218.47
2022-12-31T12:46:03.536Z,60218.47
2022-12-31T12:49:05.441Z,60218.47
2022-12-31T12:52:31.000Z,60218.47
2022-12-31T12:55:50.355Z,60218.47
2022-12-31T12:58:57.745Z,60218.47
2022-12-31T13:02:22.218Z,60218.47
2022-12-31T13:06:03.752Z,60218.47
2022-12-31T13:09:40.342Z,60218.47
2022-12-31T13:16:33.064Z,60218.47
2022-12-31T13:19:53.733Z,60218.47
2022-12-31T13:23:13.985Z,60218.47
2022-12-31T13:26:34.937Z,60218.47
2022-12-31T13:29:38.597Z,60218.47
2022-12-31T13:32:46.991Z,60218.47
2022-12-31T13:35:53.384Z,60218.47
2022-12-31T13:38:59.076Z,60218.47
2022-12-31T13:42:09.838Z,60218.47
2022-12-31T13:45:24.729Z,60218.47
2022-12-31T13:48:34.583Z,60218.47
2022-12-31T13:51:50.467Z,60218.47
2022-12-31T13:54:58.210Z,60218.47
2022-12-31T13:58:33.259Z,60218.47
2022-12-31T14:01:41.983Z,60218.47
2022-12-31T14:04:52.118Z,60218.47
2022-12-31T14:07:56.902Z,60218.47
2022-12-31T14:11:18.396Z,60218.47
2022-12-31T14:14:45.052Z,60218.47
2022-12-31T14:18:23.505Z,60218.47
2022-12-31T14:22:09.644Z,60218.47
2022-12-31T14:25:34.834Z,60218.47
2022-12-31T14:28:47.293Z,60218.47
2022-12-31T14:31:50.327Z,60218.47
2022-12-31T14:35:16.247Z,60218.47
2022-12-31T14:38:43.855Z,60218.47
2022-12-31T14:42:04.625Z,60218.47
2022-12-31T14:45:26.412Z,60218.47
2022-12-31T14:48:37.964Z,60218.47
2022-12-31T14:51:39.349Z,60218.47
2022-12-31T14:54:40.979Z,60218.47
2022-12-31T14:58:17.257Z,60218.47
2022-12-31T15:01:25.323Z,60218.47
2022-12-31T15:04:44.560Z,60218.47
2022-12-31T15:07:48.684Z,60218.47
2022-12-31T15:11:05.540Z,60218.47
2022-12-31T15:14:16.035Z,60218.47
2022-12-31T15:17:41.799Z,60218.47
2022-12-31T15:21:20.472Z,60218.47
2022-12-31T15:24:28.068Z,60218.47
2022-12-31T15:27:35.585Z,60218.47
2022-12-31T15:30:39.756Z,60218.47
2022-12-31T15:33:56.299Z,60218.47
2022-12-31T15:37:00.458Z,60218.47
2022-12-31T15:40:17.656Z,60218.47
2022-12-31T15:43:25.013Z,60218.47
2022-12-31T15:46:31.475Z,60218.47
2022-12-31T15:49:40.351Z,60218.47
2022-12-31T15:52:45.837Z,60218.47
2022-12-31T15:55:53.440Z,60218.47
2022-12-31T15:58:58.504Z,60218.47
2022-12-31T16:02:00.102Z,60218.47
2022-12-31T16:05:01.821Z,60218.47
2022-12-31T16:08:04.713Z,60218.47
2022-12-31T16:11:08.182Z,60218.47
2022-12-31T16:14:19.954Z,60218.47
2022-12-31T16:17:25.080Z,60218.47
2022-12-31T16:20:29.249Z,60218.47
2022-12-31T16:23:30.624Z,60218.47
2022-12-31T16:26:46.493Z,60218.47
2022-12-31T16:29:55.715Z,60218.47
2022-12-31T16:33:03.645Z,60218.47
2022-12-31T16:36:05.224Z,60218.47
2022-12-31T16:39:30.137Z,60218.47
2022-12-31T16:42:31.493Z,60218.47
2022-12-31T16:45:35.588Z,60218.47
2022-12-31T16:48:37.584Z,60218.47
2022-12-31T16:51:39.518Z,60218.47
2022-12-31T16:54:44.513Z,60218.47
2022-12-31T16:57:48.740Z,60218.47
2022-12-31T17:00:51.044Z,60218.47
2022-12-31T17:03:57.971Z,60218.47
2022-12-31T17:07:27.578Z,60218.47
2022-12-31T17:10:35.052Z,60218.47
2022-12-31T17:13:36.628Z,60218.47
2022-12-31T17:17:01.654Z,60218.47
2022-12-31T17:20:06.990Z,60218.47
2022-12-31T17:23:09.144Z,60218.47
2022-12-31T17:26:22.016Z,60218.47
2022-12-31T17:29:26.558Z,60218.47
2022-12-31T17:32:29.789Z,60218.47
2022-12-31T17:35:37.314Z,60218.47
2022-12-31T17:38:38.705Z,60218.47
2022-12-31T17:41:47.577Z,60218.47
2022-12-31T17:44:49.404Z,60218.47
2022-12-31T17:47:51.665Z,60218.47
2022-12-31T17:50:55.787Z,60218.47
2022-12-31T17:54:00.243Z,60218.47
2022-12-31T17:57:01.632Z,60218.47
2022-12-31T18:00:07.125Z,60218.47
2022-12-31T18:03:13.862Z,60218.47
2022-12-31T18:06:17.042Z,60218.47
2022-12-31T18:09:18.804Z,60218.47
2022-12-31T18:12:20.392Z,60218.47
2022-12-31T18:15:24.065Z,60218.47
2022-12-31T18:18:27.792Z,60218.47
2022-12-31T18:21:31.596Z,60218.47
2022-12-31T18:24:33.099Z,60218.47
2022-12-31T18:27:34.476Z,60218.47
2022-12-31T18:30:35.821Z,60218.47
2022-12-31T18:33:37.277Z,60218.47
2022-12-31T18:36:38.969Z,60218.47
2022-12-31T18:39:40.442Z,60218.47
2022-12-31T18:42:41.790Z,60218.47
2022-12-31T18:45:43.897Z,60218.47
2022-12-31T18:48:45.493Z,60218.47
2022-12-31T18:51:46.942Z,60218.47
2022-12-31T18:54:48.818Z,60218.47
2022-12-31T18:57:50.197Z,60218.47
2022-12-31T19:00:52.185Z,60218.47
2022-12-31T19:03:56.359Z,60218.47
2022-12-31T19:06:57.689Z,60218.47
2022-12-31T19:09:59.040Z,60218.47
2022-12-31T19:13:00.510Z,60218.47
2022-12-31T19:16:01.922Z,60218.47
2022-12-31T19:19:08.468Z,60218.47
2022-12-31T19:22:15.206Z,60218.47
2022-12-31T19:26:03.781Z,60218.47
2022-12-31T19:29:27.077Z,60218.47
2022-12-31T19:32:28.711Z,60218.47
2022-12-31T19:35:30.045Z,60218.47
2022-12-31T19:38:31.391Z,60218.47
2022-12-31T19:41:33.265Z,60218.47
2022-12-31T19:44:34.674Z,60218.47
2022-12-31T19:47:36.002Z,60218.47
2022-12-31T19:50:37.406Z,60218.47
2022-12-31T19:53:39.054Z,60218.47
2022-12-31T19:56:41.075Z,60218.47
2022-12-31T19:59:42.430Z,60218.47
2022-12-31T20:02:46.356Z,60218.47
2022-12-31T20:05:47.903Z,60218.47
2022-12-31T20:08:49.269Z,60218.47
2022-12-31T20:11:50.675Z,60218.47
2022-12-31T20:14:51.995Z,60218.47
2022-12-31T20:17:53.382Z,60218.47
2022-12-31T20:20:56.010Z,60218.47
2022-12-31T20:23:57.585Z,60218.47
2022-12-31T20:26:59.176Z,60218.47
2022-12-31T20:30:00.595Z,60218.47
2022-12-31T20:33:01.965Z,60218.47
2022-12-31T20:36:09.120Z,60218.47
2022-12-31T20:39:10.567Z,60218.47
2022-12-31T20:42:11.932Z,60218.47
2022-12-31T20:45:13.321Z,60218.47
2022-12-31T20:48:14.668Z,60218.47
2022-12-31T20:51:17.580Z,60218.47
2022-12-31T20:54:18.920Z,60218.47
2022-12-31T20:57:20.248Z,60218.47
2022-12-31T21:00:21.662Z,60218.47
2022-12-31T21:04:03.037Z,60218.47
2022-12-31T21:06:44.362Z,60218.47
2022-12-31T21:09:45.767Z,60218.47
2022-12-31T21:12:47.404Z,60218.47
2022-12-31T21:15:50.112Z,60218.47
2022-12-31T21:18:51.642Z,60218.47
2022-12-31T21:21:52.988Z,60218.47
2022-12-31T21:24:54.350Z,60218.47
2022-12-31T21:27:55.708Z,60218.47
2022-12-31T21:30:58.400Z,60218.47
2022-12-31T21:34:02.944Z,60218.47
2022-12-31T21:37:04.326Z,60218.47
2022-12-31T21:40:05.934Z,60218.47
2022-12-31T21:43:07.575Z,60218.47
2022-12-31T21:46:09.420Z,60218.47
2022-12-31T21:49:10.807Z,60218.47
2022-12-31T21:52:13.384Z,60218.47
2022-12-31T21:55:14.723Z,60218.47
2022-12-31T21:58:32.020Z,60218.47
2022-12-31T22:01:33.611Z,60218.47
2022-12-31T22:05:01.552Z,60218.47
2022-12-31T22:07:56.408Z,60218.47
2022-12-31T22:10:57.787Z,60218.47
2022-12-31T22:13:59.135Z,60218.47
2022-12-31T22:17:00.479Z,60218.47
2022-12-31T22:20:26.201Z,60218.47
2022-12-31T22:23:23.255Z,60218.47
2022-12-31T22:26:28.021Z,60218.47
2022-12-31T22:29:29.383Z,60218.47
2022-12-31T22:32:30.754Z,60218.47
2022-12-31T22:35:32.123Z,60218.47
2022-12-31T22:38:34.009Z,60218.47
2022-12-31T22:41:35.367Z,60218.47
2022-12-31T22:44:36.723Z,60218.47
2022-12-31T22:47:38.093Z,60218.47
2022-12-31T22:50:39.468Z,60218.47
2022-12-31T22:53:41.531Z,60218.47
2022-12-31T22:56:42.950Z,60218.47
2022-12-31T22:59:44.777Z,60218.47
2022-12-31T23:02:46.186Z,60218.47
2022-12-31T23:05:52.274Z,60218.47
2022-12-31T23:08:53.644Z,60218.47
2022-12-31T23:11:55.034Z,60218.47
2022-12-31T23:14:56.412Z,60218.47
2022-12-31T23:17:57.761Z,60218.47
2022-12-31T23:20:59.128Z,60218.47
2022-12-31T23:24:00.567Z,60218.47
2022-12-31T23:27:02.530Z,60218.47
2022-12-31T23:30:04.373Z,60218.47
2022-12-31T23:33:06.767Z,60218.47
2022-12-31T23:36:08.416Z,60218.47
2022-12-31T23:39:10.005Z,60218.47
2022-12-31T23:42:11.402Z,60218.47
2022-12-31T23:45:12.764Z,60218.47
2022-12-31T23:48:14.119Z,60218.47
2022-12-31T23:51:15.488Z,60218.47
2022-12-31T23:54:16.865Z,60218.47
2022-12-31T23:57:18.213Z,60218.47
